createdAt,value
2023-03-29T00:02:30.416Z,102538.47
2023-03-29T00:04:58.065Z,102548.69
2023-03-29T00:07:26.122Z,102547.31
2023-03-29T00:09:53.071Z,102552.22
2023-03-29T00:12:19.892Z,102555.44
2023-03-29T00:14:46.674Z,102546.03
2023-03-29T00:17:13.616Z,102557.81
2023-03-29T00:19:42.857Z,102558.38
2023-03-29T00:22:09.827Z,102557.81
2023-03-29T00:24:36.706Z,102552.50
2023-03-29T00:27:03.823Z,102554.34
2023-03-29T00:29:30.721Z,102550.63
2023-03-29T00:31:57.509Z,102554.41
2023-03-29T00:34:26.485Z,102566.19
2023-03-29T00:36:53.228Z,102560.47
2023-03-29T00:39:20.744Z,102559.97
2023-03-29T00:41:49.770Z,102562.22
2023-03-29T00:44:54.311Z,102564.59
2023-03-29T00:47:43.304Z,102562.09
2023-03-29T00:50:15.459Z,102552.72
2023-03-29T00:52:46.396Z,102550.84
2023-03-29T00:55:18.532Z,102545.75
2023-03-29T00:57:46.925Z,102546.72
2023-03-29T01:00:20.969Z,102543.28
2023-03-29T01:02:54.264Z,102558.75
2023-03-29T01:05:31.035Z,102553.28
2023-03-29T01:08:03.050Z,102553.19
2023-03-29T01:10:37.184Z,102546.34
2023-03-29T01:13:09.708Z,102545.34
2023-03-29T01:15:40.890Z,102537.13
2023-03-29T01:18:08.902Z,102541.59
2023-03-29T01:20:53.917Z,102545.94
2023-03-29T01:23:32.929Z,102548.78
2023-03-29T01:26:18.917Z,102534.78
2023-03-29T01:28:52.784Z,102533.88
2023-03-29T01:31:27.058Z,102528.00
2023-03-29T01:34:09.960Z,102526.25
2023-03-29T01:36:43.273Z,102521.63
2023-03-29T01:39:10.359Z,102515.84
2023-03-29T01:41:40.226Z,102504.09
2023-03-29T01:44:13.532Z,102504.09
2023-03-29T01:46:47.028Z,102508.03
2023-03-29T01:49:24.824Z,102490.28
2023-03-29T01:51:59.843Z,102494.03
2023-03-29T01:54:51.478Z,102500.69
2023-03-29T01:57:22.953Z,102494.41
2023-03-29T01:59:54.492Z,102496.78
2023-03-29T02:02:23.625Z,102498.72
2023-03-29T02:05:01.602Z,102476.00
2023-03-29T02:07:31.314Z,102476.97
2023-03-29T02:10:03.327Z,102467.47
2023-03-29T02:12:30.401Z,102468.09
2023-03-29T02:15:01.250Z,102457.16
2023-03-29T02:17:32.094Z,102466.19
2023-03-29T02:20:04.691Z,102466.28
2023-03-29T02:22:42.224Z,102468.44
2023-03-29T02:25:09.666Z,102464.03
2023-03-29T02:27:38.553Z,102458.06
2023-03-29T02:30:09.830Z,102453.53
2023-03-29T02:32:55.568Z,102458.44
2023-03-29T02:35:34.603Z,102444.78
2023-03-29T02:38:04.827Z,102457.94
2023-03-29T02:40:33.410Z,102455.91
2023-03-29T02:43:02.649Z,102459.13
2023-03-29T02:45:31.448Z,102459.97
2023-03-29T02:48:03.638Z,102458.38
2023-03-29T02:50:37.522Z,102454.94
2023-03-29T02:53:13.379Z,102456.03
2023-03-29T02:55:42.173Z,102470.16
2023-03-29T02:58:09.235Z,102454.44
2023-03-29T03:00:42.168Z,102472.16
2023-03-29T03:03:10.332Z,102465.06
2023-03-29T03:05:38.396Z,102465.72
2023-03-29T03:08:07.524Z,102462.41
2023-03-29T03:10:35.475Z,102458.47
2023-03-29T03:13:04.023Z,102442.97
2023-03-29T03:15:35.708Z,102440.38
2023-03-29T03:18:05.532Z,102443.16
2023-03-29T03:20:33.495Z,102432.34
2023-03-29T03:23:01.186Z,102442.91
2023-03-29T03:25:28.769Z,102456.34
2023-03-29T03:27:55.925Z,102443.41
2023-03-29T03:30:24.537Z,102443.59
2023-03-29T03:33:10.016Z,102440.69
2023-03-29T03:35:57.331Z,102451.66
2023-03-29T03:38:25.226Z,102447.25
2023-03-29T03:40:57.963Z,102437.44
2023-03-29T03:43:25.713Z,102445.88
2023-03-29T03:45:52.759Z,102444.31
2023-03-29T03:48:25.572Z,102443.03
2023-03-29T03:51:01.462Z,102442.41
2023-03-29T03:53:33.902Z,102441.53
2023-03-29T03:56:13.544Z,102435.84
2023-03-29T03:59:01.173Z,102437.22
2023-03-29T04:01:33.950Z,102435.47
2023-03-29T04:04:12.277Z,102437.41
2023-03-29T04:06:43.741Z,102416.44
2023-03-29T04:09:32.262Z,102427.75
2023-03-29T04:12:25.778Z,102428.13
2023-03-29T04:14:52.597Z,102425.00
2023-03-29T04:17:21.584Z,102423.81
2023-03-29T04:20:12.681Z,102425.38
2023-03-29T04:22:41.235Z,102420.47
2023-03-29T04:25:08.812Z,102431.44
2023-03-29T04:27:59.757Z,102430.34
2023-03-29T04:30:55.433Z,102434.75
2023-03-29T04:33:47.557Z,102435.44
2023-03-29T04:36:16.011Z,102431.09
2023-03-29T04:38:47.317Z,102423.56
2023-03-29T04:41:15.696Z,102428.91
2023-03-29T04:43:48.385Z,102429.28
2023-03-29T04:46:26.612Z,102432.56
2023-03-29T04:49:06.983Z,102431.88
2023-03-29T04:51:37.502Z,102429.63
2023-03-29T04:54:04.980Z,102417.09
2023-03-29T04:56:41.277Z,102424.34
2023-03-29T04:59:32.231Z,102436.53
2023-03-29T05:02:03.175Z,102444.25
2023-03-29T05:04:30.944Z,102447.47
2023-03-29T05:07:06.678Z,102446.72
2023-03-29T05:09:35.664Z,102451.56
2023-03-29T05:12:04.565Z,102452.97
2023-03-29T05:14:43.253Z,102461.06
2023-03-29T05:17:10.344Z,102454.28
2023-03-29T05:19:38.424Z,102461.66
2023-03-29T05:22:06.912Z,102465.91
2023-03-29T05:24:34.010Z,102457.66
2023-03-29T05:27:06.465Z,102456.25
2023-03-29T05:29:36.686Z,102461.84
2023-03-29T05:32:23.001Z,102455.88
2023-03-29T05:34:50.473Z,102467.56
2023-03-29T05:37:17.888Z,102460.78
2023-03-29T05:39:53.319Z,102461.44
2023-03-29T05:42:36.388Z,102463.34
2023-03-29T05:45:08.409Z,102460.78
2023-03-29T05:47:36.135Z,102464.22
2023-03-29T05:50:03.918Z,102463.72
2023-03-29T05:52:31.030Z,102461.44
2023-03-29T05:54:57.772Z,102469.97
2023-03-29T05:57:25.628Z,102475.69
2023-03-29T05:59:52.385Z,102471.19
2023-03-29T06:02:20.062Z,102475.31
2023-03-29T06:04:51.941Z,102479.88
2023-03-29T06:07:24.766Z,102489.91
2023-03-29T06:10:15.854Z,102484.47
2023-03-29T06:12:47.794Z,102484.66
2023-03-29T06:15:16.063Z,102488.16
2023-03-29T06:17:59.261Z,102486.75
2023-03-29T06:20:26.382Z,102486.06
2023-03-29T06:22:58.712Z,102490.47
2023-03-29T06:25:25.476Z,102489.06
2023-03-29T06:27:52.407Z,102496.00
2023-03-29T06:30:20.930Z,102485.72
2023-03-29T06:32:53.393Z,102491.97
2023-03-29T06:35:45.805Z,102497.50
2023-03-29T06:38:16.556Z,102496.91
2023-03-29T06:41:11.224Z,102503.25
2023-03-29T06:44:10.644Z,102503.84
2023-03-29T06:46:50.110Z,102507.03
2023-03-29T06:49:17.003Z,102508.06
2023-03-29T06:52:22.758Z,102507.38
2023-03-29T06:54:50.731Z,102516.25
2023-03-29T06:57:18.802Z,102526.00
2023-03-29T06:59:46.576Z,102529.81
2023-03-29T07:02:17.645Z,102533.66
2023-03-29T07:04:48.798Z,102545.47
2023-03-29T07:07:27.550Z,102551.53
2023-03-29T07:10:09.027Z,102545.53
2023-03-29T07:13:00.840Z,102545.25
2023-03-29T07:15:30.094Z,102553.72
2023-03-29T07:18:25.841Z,102551.31
2023-03-29T07:20:52.995Z,102558.78
2023-03-29T07:23:19.771Z,102558.19
2023-03-29T07:25:47.591Z,102555.84
2023-03-29T07:28:14.679Z,102558.66
2023-03-29T07:30:41.506Z,102560.09
2023-03-29T07:33:18.252Z,102563.09
2023-03-29T07:35:55.337Z,102559.31
2023-03-29T07:38:22.893Z,102555.75
2023-03-29T07:40:56.357Z,102562.97
2023-03-29T07:43:38.284Z,102562.91
2023-03-29T07:46:06.298Z,102573.03
2023-03-29T07:48:37.219Z,102567.41
2023-03-29T07:51:07.612Z,102573.81
2023-03-29T07:53:45.181Z,102570.75
2023-03-29T07:56:51.087Z,102576.34
2023-03-29T07:59:25.464Z,102587.69
2023-03-29T08:02:02.291Z,102588.00
2023-03-29T08:04:34.061Z,102584.88
2023-03-29T08:07:21.374Z,102587.38
2023-03-29T08:10:19.276Z,102593.81
2023-03-29T08:12:50.401Z,102587.38
2023-03-29T08:15:19.965Z,102591.22
2023-03-29T08:17:47.274Z,102600.75
2023-03-29T08:20:16.451Z,102599.25
2023-03-29T08:22:46.431Z,102589.66
2023-03-29T08:25:28.359Z,102592.91
2023-03-29T08:27:55.492Z,102592.63
2023-03-29T08:30:48.343Z,102585.63
2023-03-29T08:33:15.731Z,102591.72
2023-03-29T08:35:43.991Z,102592.59
2023-03-29T08:38:19.049Z,102594.19
2023-03-29T08:40:48.862Z,102599.34
2023-03-29T08:43:45.698Z,102602.72
2023-03-29T08:46:44.352Z,102607.03
2023-03-29T08:49:27.604Z,102599.47
2023-03-29T08:52:01.333Z,102590.75
2023-03-29T08:54:43.555Z,102592.50
2023-03-29T08:57:19.556Z,102585.75
2023-03-29T08:59:53.705Z,102581.31
2023-03-29T09:02:27.867Z,102577.25
2023-03-29T09:05:29.468Z,102576.53
2023-03-29T09:08:03.791Z,102588.53
2023-03-29T09:10:42.489Z,102592.28
2023-03-29T09:13:54.090Z,102596.06
2023-03-29T09:16:32.899Z,102597.91
2023-03-29T09:19:02.976Z,102599.25
2023-03-29T09:21:46.826Z,102591.16
2023-03-29T09:24:33.126Z,102599.22
2023-03-29T09:27:15.372Z,102596.94
2023-03-29T09:29:58.723Z,102601.22
2023-03-29T09:33:08.437Z,102595.59
2023-03-29T09:36:12.047Z,102592.78
2023-03-29T09:38:42.810Z,102594.72
2023-03-29T09:41:35.670Z,102600.25
2023-03-29T09:44:20.588Z,102607.22
2023-03-29T09:47:01.959Z,102610.31
2023-03-29T09:49:36.607Z,102610.31
2023-03-29T09:52:11.566Z,102618.03
2023-03-29T09:54:39.238Z,102627.25
2023-03-29T09:57:26.356Z,102621.97
2023-03-29T09:59:54.509Z,102614.16
2023-03-29T10:02:21.844Z,102622.56
2023-03-29T10:05:03.955Z,102620.97
2023-03-29T10:07:44.533Z,102624.53
2023-03-29T10:10:22.218Z,102614.97
2023-03-29T10:12:51.933Z,102609.13
2023-03-29T10:15:29.301Z,102608.38
2023-03-29T10:18:03.649Z,102605.72
2023-03-29T10:20:30.799Z,102612.28
2023-03-29T10:22:59.325Z,102603.00
2023-03-29T10:25:31.571Z,102615.75
2023-03-29T10:28:08.289Z,102617.09
2023-03-29T10:30:39.129Z,102623.81
2023-03-29T10:33:16.033Z,102620.81
2023-03-29T10:35:43.694Z,102615.16
2023-03-29T10:38:14.983Z,102615.91
2023-03-29T10:40:48.180Z,102613.06
2023-03-29T10:43:21.311Z,102614.63
2023-03-29T10:45:49.504Z,102602.31
2023-03-29T10:48:17.715Z,102601.38
2023-03-29T10:50:50.498Z,102589.16
2023-03-29T10:53:27.102Z,102589.06
2023-03-29T10:56:42.034Z,102593.47
2023-03-29T10:59:09.333Z,102593.13
2023-03-29T11:02:03.185Z,102593.03
2023-03-29T11:04:57.442Z,102594.72
2023-03-29T11:07:35.899Z,102589.38
2023-03-29T11:10:40.185Z,102583.22
2023-03-29T11:13:31.613Z,102590.41
2023-03-29T11:16:26.541Z,102591.72
2023-03-29T11:19:19.241Z,102595.38
2023-03-29T11:22:01.224Z,102596.09
2023-03-29T11:24:37.118Z,102580.66
2023-03-29T11:27:31.302Z,102586.38
2023-03-29T11:30:33.958Z,102583.41
2023-03-29T11:33:29.886Z,102587.59
2023-03-29T11:36:16.932Z,102590.16
2023-03-29T11:39:04.516Z,102580.56
2023-03-29T11:41:36.009Z,102581.34
2023-03-29T11:44:02.682Z,102584.16
2023-03-29T11:46:56.902Z,102584.59
2023-03-29T11:49:30.095Z,102578.53
2023-03-29T11:52:20.010Z,102585.81
2023-03-29T11:54:53.226Z,102586.44
2023-03-29T11:57:32.100Z,102586.44
2023-03-29T12:00:12.443Z,102583.53
2023-03-29T12:02:56.006Z,102580.69
2023-03-29T12:05:31.114Z,102576.31
2023-03-29T12:08:13.933Z,102561.22
2023-03-29T12:10:58.170Z,102569.00
2023-03-29T12:13:32.368Z,102568.78
2023-03-29T12:16:05.944Z,102564.41
2023-03-29T12:18:39.882Z,102561.78
2023-03-29T12:21:14.713Z,102556.50
2023-03-29T12:23:43.963Z,102558.94
2023-03-29T12:26:29.011Z,102559.81
2023-03-29T12:29:05.676Z,102557.97
2023-03-29T12:31:51.300Z,102546.97
2023-03-29T12:34:51.745Z,102548.59
2023-03-29T12:37:32.939Z,102555.41
2023-03-29T12:40:21.303Z,102560.56
2023-03-29T12:43:29.132Z,102553.59
2023-03-29T12:46:23.051Z,102554.41
2023-03-29T12:48:55.019Z,102545.69
2023-03-29T12:51:29.748Z,102538.72
2023-03-29T12:54:03.620Z,102538.66
2023-03-29T12:56:54.890Z,102543.91
2023-03-29T12:59:38.460Z,102538.66
2023-03-29T13:02:14.220Z,102533.25
2023-03-29T13:04:43.850Z,102528.88
2023-03-29T13:07:23.056Z,102527.19
2023-03-29T13:09:53.137Z,102522.06
2023-03-29T13:12:22.885Z,102516.84
2023-03-29T13:14:55.944Z,102510.84
2023-03-29T13:17:48.803Z,102506.56
2023-03-29T13:20:43.387Z,102515.91
2023-03-29T13:23:39.231Z,102503.09
2023-03-29T13:26:39.676Z,102498.00
2023-03-29T13:29:12.308Z,102504.09
2023-03-29T13:32:17.761Z,102499.88
2023-03-29T13:34:59.638Z,102498.34
2023-03-29T13:37:46.830Z,102499.41
2023-03-29T13:40:38.991Z,102489.22
2023-03-29T13:43:25.204Z,102492.59
2023-03-29T13:45:52.344Z,102491.59
2023-03-29T13:48:27.234Z,102497.59
2023-03-29T13:50:54.048Z,102497.84
2023-03-29T13:53:35.201Z,102487.75
2023-03-29T13:56:03.230Z,102493.03
2023-03-29T13:58:51.511Z,102493.91
2023-03-29T14:01:43.917Z,102481.19
2023-03-29T14:04:20.264Z,102491.47
2023-03-29T14:06:53.206Z,102492.19
2023-03-29T14:09:23.657Z,102492.06
2023-03-29T14:11:51.631Z,102494.41
2023-03-29T14:14:24.155Z,102494.50
2023-03-29T14:16:51.491Z,102503.81
2023-03-29T14:19:37.605Z,102503.75
2023-03-29T14:22:10.896Z,102511.59
2023-03-29T14:24:40.569Z,102503.00
2023-03-29T14:27:10.336Z,102495.84
2023-03-29T14:29:37.522Z,102498.34
2023-03-29T14:32:12.632Z,102487.19
2023-03-29T14:34:40.236Z,102485.78
2023-03-29T14:37:09.140Z,102472.19
2023-03-29T14:39:36.543Z,102470.66
2023-03-29T14:42:03.765Z,102474.16
2023-03-29T14:44:33.464Z,102469.16
2023-03-29T14:47:03.004Z,102467.75
2023-03-29T14:49:31.801Z,102470.50
2023-03-29T14:51:59.350Z,102466.22
2023-03-29T14:54:29.008Z,102462.31
2023-03-29T14:56:56.296Z,102470.72
2023-03-29T14:59:32.078Z,102473.28
2023-03-29T15:01:59.015Z,102465.34
2023-03-29T15:04:35.726Z,102469.63
2023-03-29T15:07:04.411Z,102478.28
2023-03-29T15:09:34.308Z,102463.78
2023-03-29T15:12:02.981Z,102464.63
2023-03-29T15:14:34.030Z,102453.41
2023-03-29T15:17:17.072Z,102454.25
2023-03-29T15:19:43.810Z,102449.22
2023-03-29T15:22:11.483Z,102447.47
2023-03-29T15:24:47.535Z,102440.75
2023-03-29T15:27:17.412Z,102445.06
2023-03-29T15:29:46.928Z,102442.50
2023-03-29T15:32:24.452Z,102437.25
2023-03-29T15:35:02.907Z,102431.25
2023-03-29T15:37:29.719Z,102439.06
2023-03-29T15:39:57.190Z,102439.81
2023-03-29T15:42:24.935Z,102433.81
2023-03-29T15:44:56.265Z,102434.75
2023-03-29T15:47:24.049Z,102436.50
2023-03-29T15:49:50.944Z,102434.75
2023-03-29T15:52:17.824Z,102442.47
2023-03-29T15:54:44.568Z,102440.69
2023-03-29T15:57:14.888Z,102444.06
2023-03-29T15:59:43.486Z,102421.72
2023-03-29T16:02:16.466Z,102438.31
2023-03-29T16:04:43.799Z,102444.34
2023-03-29T16:07:14.034Z,102435.75
2023-03-29T16:09:40.925Z,102436.84
2023-03-29T16:12:07.892Z,102438.50
2023-03-29T16:14:34.925Z,102435.81
2023-03-29T16:17:03.355Z,102432.31
2023-03-29T16:19:31.799Z,102434.88
2023-03-29T16:21:59.901Z,102438.06
2023-03-29T16:24:29.215Z,102438.06
2023-03-29T16:26:56.568Z,102436.38
2023-03-29T16:29:24.946Z,102441.50
2023-03-29T16:31:52.892Z,102437.06
2023-03-29T16:34:20.599Z,102432.81
2023-03-29T16:36:47.933Z,102434.41
2023-03-29T16:39:15.973Z,102435.25
2023-03-29T16:41:43.271Z,102430.91
2023-03-29T16:44:20.054Z,102437.72
2023-03-29T16:46:48.926Z,102446.25
2023-03-29T16:49:18.474Z,102453.09
2023-03-29T16:51:48.679Z,102448.75
2023-03-29T16:54:17.229Z,102453.97
2023-03-29T16:56:44.479Z,102462.47
2023-03-29T16:59:12.226Z,102457.28
2023-03-29T17:01:40.618Z,102457.22
2023-03-29T17:04:08.840Z,102458.84
2023-03-29T17:06:36.038Z,102454.53
2023-03-29T17:09:05.146Z,102451.00
2023-03-29T17:11:32.292Z,102443.28
2023-03-29T17:13:59.265Z,102438.09
2023-03-29T17:16:28.964Z,102444.13
2023-03-29T17:19:00.354Z,102444.03
2023-03-29T17:21:28.962Z,102440.66
2023-03-29T17:23:55.675Z,102448.31
2023-03-29T17:26:22.516Z,102454.19
2023-03-29T17:28:49.531Z,102455.78
2023-03-29T17:31:17.053Z,102453.16
2023-03-29T17:33:43.714Z,102459.91
2023-03-29T17:36:11.217Z,102450.38
2023-03-29T17:38:38.308Z,102450.38
2023-03-29T17:41:07.064Z,102454.66
2023-03-29T17:43:34.152Z,102457.34
2023-03-29T17:46:01.082Z,102449.47
2023-03-29T17:48:28.448Z,102457.94
2023-03-29T17:50:56.624Z,102454.47
2023-03-29T17:53:23.616Z,102465.47
2023-03-29T17:55:50.422Z,102472.22
2023-03-29T17:58:17.225Z,102473.81
2023-03-29T18:00:44.111Z,102475.25
2023-03-29T18:03:11.746Z,102484.34
2023-03-29T18:05:38.541Z,102478.41
2023-03-29T18:08:05.474Z,102475.06
2023-03-29T18:10:32.574Z,102480.22
2023-03-29T18:12:59.382Z,102491.22
2023-03-29T18:15:26.144Z,102490.63
2023-03-29T18:17:53.099Z,102481.72
2023-03-29T18:20:20.853Z,102484.59
2023-03-29T18:22:47.827Z,102503.53
2023-03-29T18:25:14.973Z,102505.06
2023-03-29T18:27:41.776Z,102498.72
2023-03-29T18:30:09.017Z,102505.88
2023-03-29T18:32:36.790Z,102514.44
2023-03-29T18:35:03.965Z,102506.56
2023-03-29T18:37:31.113Z,102506.47
2023-03-29T18:39:57.834Z,102518.94
2023-03-29T18:42:24.685Z,102529.13
2023-03-29T18:44:51.532Z,102526.28
2023-03-29T18:47:18.494Z,102536.75
2023-03-29T18:49:45.391Z,102540.19
2023-03-29T18:52:13.493Z,102539.97
2023-03-29T18:54:40.264Z,102542.53
2023-03-29T18:57:07.162Z,102544.97
2023-03-29T18:59:36.553Z,102532.88
2023-03-29T19:02:04.044Z,102537.25
2023-03-29T19:04:30.862Z,102551.19
2023-03-29T19:06:57.864Z,102552.06
2023-03-29T19:09:24.767Z,102546.94
2023-03-29T19:11:51.712Z,102547.94
2023-03-29T19:14:23.499Z,102547.03
2023-03-29T19:16:51.529Z,102538.28
2023-03-29T19:19:19.340Z,102545.31
2023-03-29T19:21:50.144Z,102542.81
2023-03-29T19:24:16.938Z,102546.34
2023-03-29T19:26:44.479Z,102553.16
2023-03-29T19:29:11.756Z,102550.50
2023-03-29T19:31:38.970Z,102556.47
2023-03-29T19:34:07.119Z,102554.72
2023-03-29T19:36:33.941Z,102554.63
2023-03-29T19:39:01.322Z,102562.28
2023-03-29T19:41:28.503Z,102568.28
2023-03-29T19:43:55.531Z,102564.84
2023-03-29T19:46:22.558Z,102558.81
2023-03-29T19:48:49.653Z,102555.44
2023-03-29T19:51:16.817Z,102561.38
2023-03-29T19:53:43.867Z,102559.72
2023-03-29T19:56:11.158Z,102556.31
2023-03-29T19:58:38.153Z,102555.44
2023-03-29T20:01:05.184Z,102555.59
2023-03-29T20:03:34.226Z,102549.59
2023-03-29T20:06:01.574Z,102556.59
2023-03-29T20:08:28.644Z,102549.78
2023-03-29T20:11:14.745Z,102555.66
2023-03-29T20:13:43.071Z,102555.50
2023-03-29T20:16:12.871Z,102558.50
2023-03-29T20:18:40.325Z,102555.06
2023-03-29T20:21:08.486Z,102558.59
2023-03-29T20:26:20.284Z,102552.78
2023-03-29T20:28:47.597Z,102551.19
2023-03-29T20:31:14.487Z,102540.94
2023-03-29T20:33:42.404Z,102545.31
2023-03-29T20:36:09.316Z,102542.03
2023-03-29T20:38:36.354Z,102541.22
2023-03-29T20:41:05.418Z,102540.34
2023-03-29T20:43:37.520Z,102542.09
2023-03-29T20:46:06.025Z,102542.09
2023-03-29T20:48:32.787Z,102537.03
2023-03-29T20:51:03.095Z,102539.59
2023-03-29T20:53:34.266Z,102541.34
2023-03-29T20:56:00.973Z,102533.56
2023-03-29T20:58:29.157Z,102539.59
2023-03-29T21:00:59.135Z,102531.75
2023-03-29T21:03:26.415Z,102542.22
2023-03-29T21:05:55.299Z,102537.81
2023-03-29T21:08:22.150Z,102537.69
2023-03-29T21:10:49.022Z,102539.22
2023-03-29T21:13:15.974Z,102533.22
2023-03-29T21:15:43.797Z,102537.63
2023-03-29T21:18:16.868Z,102534.19
2023-03-29T21:20:45.410Z,102533.50
2023-03-29T21:23:13.518Z,102530.81
2023-03-29T21:25:41.015Z,102536.81
2023-03-29T21:28:07.996Z,102537.50
2023-03-29T21:30:34.819Z,102529.84
2023-03-29T21:33:01.980Z,102542.69
2023-03-29T21:35:29.090Z,102537.53
2023-03-29T21:37:56.132Z,102536.91
2023-03-29T21:40:23.768Z,102530.56
2023-03-29T21:42:53.118Z,102534.84
2023-03-29T21:45:19.947Z,102536.66
2023-03-29T21:47:46.699Z,102535.06
2023-03-29T21:50:13.854Z,102526.53
2023-03-29T21:52:41.018Z,102525.44
2023-03-29T21:55:08.419Z,102530.72
2023-03-29T21:57:35.197Z,102537.53
2023-03-29T22:00:02.693Z,102535.84
2023-03-29T22:02:32.277Z,102528.91
2023-03-29T22:04:59.304Z,102533.38
2023-03-29T22:07:26.175Z,102528.97
2023-03-29T22:09:53.028Z,102525.25
2023-03-29T22:12:19.763Z,102521.72
2023-03-29T22:14:47.460Z,102526.00
2023-03-29T22:17:16.064Z,102524.31
2023-03-29T22:19:43.500Z,102525.03
2023-03-29T22:22:13.903Z,102519.81
2023-03-29T22:24:41.588Z,102519.81
2023-03-29T22:27:08.535Z,102521.41
2023-03-29T22:29:35.468Z,102532.72
2023-03-29T22:32:02.331Z,102525.81
2023-03-29T22:34:30.134Z,102526.28
2023-03-29T22:36:56.876Z,102527.28
2023-03-29T22:39:23.684Z,102528.28
2023-03-29T22:41:50.457Z,102532.63
2023-03-29T22:44:17.198Z,102525.72
2023-03-29T22:46:44.072Z,102522.25
2023-03-29T22:49:11.513Z,102520.53
2023-03-29T22:51:38.289Z,102519.66
2023-03-29T22:54:05.156Z,102522.16
2023-03-29T22:56:32.048Z,102523.84
2023-03-29T22:58:58.908Z,102517.91
2023-03-29T23:01:25.670Z,102520.53
2023-03-29T23:03:52.511Z,102517.16
2023-03-29T23:06:19.243Z,102513.81
2023-03-29T23:08:46.040Z,102512.91
2023-03-29T23:11:12.836Z,102506.97
2023-03-29T23:13:39.967Z,102508.72
2023-03-29T23:16:07.245Z,102503.69
2023-03-29T23:18:37.859Z,102511.16
2023-03-29T23:21:06.070Z,102516.09
2023-03-29T23:23:33.720Z,102510.06
2023-03-29T23:26:00.727Z,102515.28
2023-03-29T23:28:34.772Z,102514.41
2023-03-29T23:31:13.512Z,102503.41
2023-03-29T23:33:42.772Z,102511.38
2023-03-29T23:36:12.833Z,102508.88
2023-03-29T23:38:40.018Z,102500.22
2023-03-29T23:41:10.464Z,102510.34
2023-03-29T23:43:42.850Z,102512.16
2023-03-29T23:46:12.332Z,102509.59
2023-03-29T23:48:39.404Z,102510.41
2023-03-29T23:51:08.095Z,102507.13
2023-03-29T23:53:34.962Z,102503.72
2023-03-29T23:56:04.127Z,102504.56
2023-03-29T23:58:34.064Z,102502.03
